sensor_id;sensor_type;location;lat;lon;timestamp;pressure;altitude;pressure_sealevel;temperature;humidity
9187;BME280;7273;48.902;9.410;2023-02-18T00:01:53;98922.59;;;12.42;nan
9187;BME280;7273;48.902;9.410;2023-02-18T00:04:18;98908.22;;;12.42;nan
9187;BME280;7273;48.902;9.410;2023-02-18T00:06:43;98912.81;;;12.41;nan
9187;BME280;7273;48.902;9.410;2023-02-18T00:09:09;98908.47;;;12.40;nan
9187;BME280;7273;48.902;9.410;2023-02-18T00:11:35;98911.19;;;12.40;nan
9187;BME280;7273;48.902;9.410;2023-02-18T00:14:03;98906.03;;;12.39;nan
9187;BME280;7273;48.902;9.410;2023-02-18T00:16:29;98905.75;;;12.35;nan
9187;BME280;7273;48.902;9.410;2023-02-18T00:18:57;98908.47;;;12.35;nan
9187;BME280;7273;48.902;9.410;2023-02-18T00:21:23;98904.63;;;12.31;nan
9187;BME280;7273;48.902;9.410;2023-02-18T00:23:49;98905.47;;;12.32;nan
9187;BME280;7273;48.902;9.410;2023-02-18T00:26:16;98904.13;;;12.29;nan
9187;BME280;7273;48.902;9.410;2023-02-18T00:28:42;98908.97;;;12.27;nan
9187;BME280;7273;48.902;9.410;2023-02-18T00:31:13;98901.13;;;12.26;nan
9187;BME280;7273;48.902;9.410;2023-02-18T00:33:39;98898.66;;;12.24;nan
9187;BME280;7273;48.902;9.410;2023-02-18T00:36:08;98898.66;;;12.24;nan
9187;BME280;7273;48.902;9.410;2023-02-18T00:38:34;98902.19;;;12.25;nan
9187;BME280;7273;48.902;9.410;2023-02-18T00:41:00;98899.47;;;12.25;nan
9187;BME280;7273;48.902;9.410;2023-02-18T00:43:26;98899.47;;;12.25;nan
9187;BME280;7273;48.902;9.410;2023-02-18T00:45:52;98892.97;;;12.26;nan
9187;BME280;7273;48.902;9.410;2023-02-18T00:48:17;98888.63;;;12.25;nan
9187;BME280;7273;48.902;9.410;2023-02-18T00:50:43;98888.88;;;12.23;nan
9187;BME280;7273;48.902;9.410;2023-02-18T00:53:08;98885.91;;;12.25;nan
9187;BME280;7273;48.902;9.410;2023-02-18T00:55:41;98891.88;;;12.27;nan
9187;BME280;7273;48.902;9.410;2023-02-18T00:58:07;98896.47;;;12.26;nan
9187;BME280;7273;48.902;9.410;2023-02-18T01:00:33;98906.81;;;12.29;nan
9187;BME280;7273;48.902;9.410;2023-02-18T01:02:58;98911.44;;;12.29;nan
9187;BME280;7273;48.902;9.410;2023-02-18T01:05:24;98916.59;;;12.30;nan
9187;BME280;7273;48.902;9.410;2023-02-18T01:07:49;98915.75;;;12.30;nan
9187;BME280;7273;48.902;9.410;2023-02-18T01:10:15;98911.16;;;12.30;nan
9187;BME280;7273;48.902;9.410;2023-02-18T01:12:40;98909.28;;;12.31;nan
9187;BME280;7273;48.902;9.410;2023-02-18T01:15:07;98902.75;;;12.32;nan
9187;BME280;7273;48.902;9.410;2023-02-18T01:17:32;98896.78;;;12.30;nan
9187;BME280;7273;48.902;9.410;2023-02-18T01:19:57;98892.44;;;12.29;nan
9187;BME280;7273;48.902;9.410;2023-02-18T01:22:24;98897.31;;;12.27;nan
9187;BME280;7273;48.902;9.410;2023-02-18T01:24:49;98893.78;;;12.26;nan
9187;BME280;7273;48.902;9.410;2023-02-18T01:27:15;98895.97;;;12.24;nan
9187;BME280;7273;48.902;9.410;2023-02-18T01:29:40;98897.56;;;12.25;nan
9187;BME280;7273;48.902;9.410;2023-02-18T01:32:05;98892.41;;;12.24;nan
9187;BME280;7273;48.902;9.410;2023-02-18T01:34:31;98883.19;;;12.25;nan
9187;BME280;7273;48.902;9.410;2023-02-18T01:36:56;98877.25;;;12.23;nan
9187;BME280;7273;48.902;9.410;2023-02-18T01:39:22;98888.63;;;12.25;nan
9187;BME280;7273;48.902;9.410;2023-02-18T01:41:47;98892.41;;;12.24;nan
9187;BME280;7273;48.902;9.410;2023-02-18T01:46:40;98885.38;;;12.23;nan
9187;BME280;7273;48.902;9.410;2023-02-18T01:49:05;98883.72;;;12.22;nan
9187;BME280;7273;48.902;9.410;2023-02-18T01:51:38;98884.56;;;12.22;nan
9187;BME280;7273;48.902;9.410;2023-02-18T01:54:08;98877.47;;;12.21;nan
9187;BME280;7273;48.902;9.410;2023-02-18T01:56:41;98873.41;;;12.18;nan
9187;BME280;7273;48.902;9.410;2023-02-18T01:59:24;98878.03;;;12.18;nan
9187;BME280;7273;48.902;9.410;2023-02-18T02:01:50;98880.22;;;12.16;nan
9187;BME280;7273;48.902;9.410;2023-02-18T02:04:16;98872.31;;;12.14;nan
9187;BME280;7273;48.902;9.410;2023-02-18T02:06:42;98869.38;;;12.16;nan
9187;BME280;7273;48.902;9.410;2023-02-18T02:09:09;98859.56;;;12.15;nan
9187;BME280;7273;48.902;9.410;2023-02-18T02:12:14;98863.13;;;12.15;nan
9187;BME280;7273;48.902;9.410;2023-02-18T02:17:48;98868.25;;;12.17;nan
9187;BME280;7273;48.902;9.410;2023-02-18T02:23:28;98862.03;;;12.16;nan
9187;BME280;7273;48.902;9.410;2023-02-18T02:40:23;98850.63;;;12.14;nan
9187;BME280;7273;48.902;9.410;2023-02-18T02:43:12;98844.69;;;12.18;nan
9187;BME280;7273;48.902;9.410;2023-02-18T02:46:02;98860.13;;;12.17;nan
9187;BME280;7273;48.902;9.410;2023-02-18T02:51:10;98854.44;;;12.18;nan
9187;BME280;7273;48.902;9.410;2023-02-18T02:53:40;98849.84;;;12.19;nan
9187;BME280;7273;48.902;9.410;2023-02-18T02:56:06;98847.66;;;12.16;nan
9187;BME280;7273;48.902;9.410;2023-02-18T02:58:34;98842.47;;;12.14;nan
9187;BME280;7273;48.902;9.410;2023-02-18T03:01:24;98844.41;;;12.14;nan
9187;BME280;7273;48.902;9.410;2023-02-18T03:09:27;98839.78;;;12.14;nan
9187;BME280;7273;48.902;9.410;2023-02-18T03:20:22;98826.19;;;12.09;nan
9187;BME280;7273;48.902;9.410;2023-02-18T03:22:48;98823.25;;;12.11;nan
9187;BME280;7273;48.902;9.410;2023-02-18T03:25:16;98815.63;;;12.08;nan
9187;BME280;7273;48.902;9.410;2023-02-18T03:27:46;98803.97;;;12.07;nan
9187;BME280;7273;48.902;9.410;2023-02-18T03:30:28;98809.69;;;12.06;nan
9187;BME280;7273;48.902;9.410;2023-02-18T03:32:59;98805.59;;;12.03;nan
9187;BME280;7273;48.902;9.410;2023-02-18T03:35:27;98808.84;;;12.05;nan
9187;BME280;7273;48.902;9.410;2023-02-18T03:38:02;98812.91;;;12.03;nan
9187;BME280;7273;48.902;9.410;2023-02-18T03:40:31;98810.47;;;12.06;nan
9187;BME280;7273;48.902;9.410;2023-02-18T03:42:57;98802.31;;;12.01;nan
9187;BME280;7273;48.902;9.410;2023-02-18T03:45:24;98816.44;;;12.03;nan
9187;BME280;7273;48.902;9.410;2023-02-18T03:47:50;98821.84;;;12.03;nan
9187;BME280;7273;48.902;9.410;2023-02-18T03:50:15;98809.38;;;11.97;nan
9187;BME280;7273;48.902;9.410;2023-02-18T03:52:41;98810.44;;;12.01;nan
9187;BME280;7273;48.902;9.410;2023-02-18T03:55:06;98815.88;;;12.01;nan
9187;BME280;7273;48.902;9.410;2023-02-18T03:57:33;98811.81;;;11.99;nan
9187;BME280;7273;48.902;9.410;2023-02-18T03:59:58;98818.03;;;11.94;nan
9187;BME280;7273;48.902;9.410;2023-02-18T04:02:24;98810.19;;;11.93;nan
9187;BME280;7273;48.902;9.410;2023-02-18T04:04:49;98809.06;;;11.89;nan
9187;BME280;7273;48.902;9.410;2023-02-18T04:07:15;98815.59;;;11.93;nan
9187;BME280;7273;48.902;9.410;2023-02-18T04:09:40;98803.38;;;11.90;nan
9187;BME280;7273;48.902;9.410;2023-02-18T04:12:06;98802.81;;;11.83;nan
9187;BME280;7273;48.902;9.410;2023-02-18T04:14:31;98808.50;;;11.87;nan
9187;BME280;7273;48.902;9.410;2023-02-18T04:16:57;98792.50;;;11.80;nan
9187;BME280;7273;48.902;9.410;2023-02-18T04:19:22;98806.06;;;11.80;nan
9187;BME280;7273;48.902;9.410;2023-02-18T04:21:48;98800.38;;;11.82;nan
9187;BME280;7273;48.902;9.410;2023-02-18T04:24:13;98799.28;;;11.78;nan
9187;BME280;7273;48.902;9.410;2023-02-18T04:26:39;98794.41;;;11.80;nan
9187;BME280;7273;48.902;9.410;2023-02-18T04:29:04;98791.44;;;11.76;nan
9187;BME280;7273;48.902;9.410;2023-02-18T04:31:29;98795.75;;;11.77;nan
9187;BME280;7273;48.902;9.410;2023-02-18T04:33:55;98794.13;;;11.76;nan
9187;BME280;7273;48.902;9.410;2023-02-18T04:36:20;98796.84;;;11.76;nan
9187;BME280;7273;48.902;9.410;2023-02-18T04:38:46;98796.28;;;11.74;nan
9187;BME280;7273;48.902;9.410;2023-02-18T04:41:11;98787.34;;;11.74;nan
9187;BME280;7273;48.902;9.410;2023-02-18T04:43:37;98790.59;;;11.71;nan
9187;BME280;7273;48.902;9.410;2023-02-18T04:46:03;98794.66;;;11.73;nan
9187;BME280;7273;48.902;9.410;2023-02-18T04:48:28;98787.88;;;11.71;nan
9187;BME280;7273;48.902;9.410;2023-02-18T04:50:54;98794.91;;;11.67;nan
9187;BME280;7273;48.902;9.410;2023-02-18T04:53:19;98788.13;;;11.64;nan
9187;BME280;7273;48.902;9.410;2023-02-18T04:55:51;98795.16;;;11.65;nan
9187;BME280;7273;48.902;9.410;2023-02-18T04:58:18;98791.66;;;11.65;nan
9187;BME280;7273;48.902;9.410;2023-02-18T05:00:44;98803.00;;;11.62;nan
9187;BME280;7273;48.902;9.410;2023-02-18T05:03:09;98801.06;;;11.62;nan
9187;BME280;7273;48.902;9.410;2023-02-18T05:05:35;98801.06;;;11.62;nan
9187;BME280;7273;48.902;9.410;2023-02-18T05:08:00;98798.38;;;11.62;nan
9187;BME280;7273;48.902;9.410;2023-02-18T05:10:26;98808.13;;;11.58;nan
9187;BME280;7273;48.902;9.410;2023-02-18T05:12:51;98810.00;;;11.58;nan
9187;BME280;7273;48.902;9.410;2023-02-18T05:15:17;98811.88;;;11.57;nan
9187;BME280;7273;48.902;9.410;2023-02-18T05:17:42;98812.97;;;11.56;nan
9187;BME280;7273;48.902;9.410;2023-02-18T05:20:08;98802.97;;;11.57;nan
9187;BME280;7273;48.902;9.410;2023-02-18T05:22:33;98796.47;;;11.58;nan
9187;BME280;7273;48.902;9.410;2023-02-18T05:24:59;98794.56;;;11.58;nan
9187;BME280;7273;48.902;9.410;2023-02-18T05:27:24;98796.47;;;11.58;nan
9187;BME280;7273;48.902;9.410;2023-02-18T05:29:49;98793.75;;;11.58;nan
9187;BME280;7273;48.902;9.410;2023-02-18T05:32:15;98787.50;;;11.52;nan
9187;BME280;7273;48.902;9.410;2023-02-18T05:34:40;98788.84;;;11.50;nan
9187;BME280;7273;48.902;9.410;2023-02-18T05:37:06;98788.31;;;11.53;nan
9187;BME280;7273;48.902;9.410;2023-02-18T05:39:31;98791.81;;;11.48;nan
9187;BME280;7273;48.902;9.410;2023-02-18T05:41:57;98790.19;;;11.47;nan
9187;BME280;7273;48.902;9.410;2023-02-18T05:44:22;98793.69;;;11.48;nan
9187;BME280;7273;48.902;9.410;2023-02-18T05:46:59;98792.09;;;11.47;nan
9187;BME280;7273;48.902;9.410;2023-02-18T05:49:27;98794.22;;;11.45;nan
9187;BME280;7273;48.902;9.410;2023-02-18T05:51:53;98790.19;;;11.42;nan
9187;BME280;7273;48.902;9.410;2023-02-18T05:54:18;98787.72;;;11.41;nan
9187;BME280;7273;48.902;9.410;2023-02-18T05:56:44;98786.91;;;11.40;nan
9187;BME280;7273;48.902;9.410;2023-02-18T05:59:09;98787.72;;;11.36;nan
9187;BME280;7273;48.902;9.410;2023-02-18T06:01:35;98789.84;;;11.34;nan
9187;BME280;7273;48.902;9.410;2023-02-18T06:04:00;98783.34;;;11.35;nan
9187;BME280;7273;48.902;9.410;2023-02-18T06:06:25;98776.03;;;11.30;nan
9187;BME280;7273;48.902;9.410;2023-02-18T06:08:51;98774.41;;;11.29;nan
9187;BME280;7273;48.902;9.410;2023-02-18T06:11:16;98769.22;;;11.28;nan
9187;BME280;7273;48.902;9.410;2023-02-18T06:13:42;98776.00;;;11.25;nan
9187;BME280;7273;48.902;9.410;2023-02-18T06:16:07;98789.53;;;11.25;nan
9187;BME280;7273;48.902;9.410;2023-02-18T06:18:33;98785.47;;;11.23;nan
9187;BME280;7273;48.902;9.410;2023-02-18T06:20:58;98793.84;;;11.21;nan
9187;BME280;7273;48.902;9.410;2023-02-18T06:23:23;98795.19;;;11.19;nan
9187;BME280;7273;48.902;9.410;2023-02-18T06:25:49;98794.63;;;11.17;nan
9187;BME280;7273;48.902;9.410;2023-02-18T06:28:16;98800.59;;;11.19;nan
9187;BME280;7273;48.902;9.410;2023-02-18T06:30:41;98799.78;;;11.18;nan
9187;BME280;7273;48.902;9.410;2023-02-18T06:33:07;98797.06;;;11.18;nan
9187;BME280;7273;48.902;9.410;2023-02-18T06:35:32;98795.19;;;11.19;nan
9187;BME280;7273;48.902;9.410;2023-02-18T06:37:57;98787.06;;;11.19;nan
9187;BME280;7273;48.902;9.410;2023-02-18T06:40:23;98787.06;;;11.19;nan
9187;BME280;7273;48.902;9.410;2023-02-18T06:42:48;98785.44;;;11.18;nan
9187;BME280;7273;48.902;9.410;2023-02-18T06:45:14;98789.22;;;11.17;nan
9187;BME280;7273;48.902;9.410;2023-02-18T06:47:39;98788.41;;;11.16;nan
9187;BME280;7273;48.902;9.410;2023-02-18T06:50:05;98793.84;;;11.21;nan
9187;BME280;7273;48.902;9.410;2023-02-18T06:52:31;98791.69;;;11.23;nan
9187;BME280;7273;48.902;9.410;2023-02-18T06:54:58;98780.28;;;11.21;nan
9187;BME280;7273;48.902;9.410;2023-02-18T06:57:24;98780.56;;;11.20;nan
9187;BME280;7273;48.902;9.410;2023-02-18T06:59:49;98776.75;;;11.16;nan
9187;BME280;7273;48.902;9.410;2023-02-18T07:02:15;98778.16;;;11.23;nan
9187;BME280;7273;48.902;9.410;2023-02-18T07:04:40;98778.97;;;11.24;nan
9187;BME280;7273;48.902;9.410;2023-02-18T07:07:05;98786.28;;;11.23;nan
9187;BME280;7273;48.902;9.410;2023-02-18T07:09:31;98788.19;;;11.23;nan
9187;BME280;7273;48.902;9.410;2023-02-18T07:11:56;98790.63;;;11.24;nan
9187;BME280;7273;48.902;9.410;2023-02-18T07:14:22;98791.69;;;11.23;nan
9187;BME280;7273;48.902;9.410;2023-02-18T07:16:49;98788.97;;;11.23;nan
9187;BME280;7273;48.902;9.410;2023-02-18T07:19:15;98788.44;;;11.26;nan
9187;BME280;7273;48.902;9.410;2023-02-18T07:21:40;98777.34;;;11.28;nan
9187;BME280;7273;48.902;9.410;2023-02-18T07:24:06;98774.41;;;11.29;nan
9187;BME280;7273;48.902;9.410;2023-02-18T07:26:31;98778.72;;;11.30;nan
9187;BME280;7273;48.902;9.410;2023-02-18T07:28:57;98764.94;;;11.32;nan
9187;BME280;7273;48.902;9.410;2023-02-18T07:31:22;98767.38;;;11.33;nan
9187;BME280;7273;48.902;9.410;2023-02-18T07:33:47;98763.06;;;11.37;nan
9187;BME280;7273;48.902;9.410;2023-02-18T07:36:13;98758.72;;;11.41;nan
9187;BME280;7273;48.902;9.410;2023-02-18T07:38:38;98764.72;;;11.43;nan
9187;BME280;7273;48.902;9.410;2023-02-18T07:41:04;98765.00;;;11.47;nan
9187;BME280;7273;48.902;9.410;2023-02-18T07:43:29;98752.53;;;11.51;nan
9187;BME280;7273;48.902;9.410;2023-02-18T07:45:55;98750.38;;;11.53;nan
9187;BME280;7273;48.902;9.410;2023-02-18T07:48:20;98746.34;;;11.55;nan
9187;BME280;7273;48.902;9.410;2023-02-18T07:50:46;98746.88;;;11.62;nan
9187;BME280;7273;48.902;9.410;2023-02-18T07:53:14;98748.03;;;11.66;nan
9187;BME280;7273;48.902;9.410;2023-02-18T07:55:39;98740.97;;;11.70;nan
9187;BME280;7273;48.902;9.410;2023-02-18T08:00:43;98739.69;;;11.83;nan
9187;BME280;7273;48.902;9.410;2023-02-18T08:03:08;98748.38;;;11.85;nan
9187;BME280;7273;48.902;9.410;2023-02-18T08:05:34;98740.22;;;11.90;nan
9187;BME280;7273;48.902;9.410;2023-02-18T08:07:59;98738.59;;;11.94;nan
9187;BME280;7273;48.902;9.410;2023-02-18T08:10:25;98745.66;;;12.00;nan
9187;BME280;7273;48.902;9.410;2023-02-18T08:12:50;98740.78;;;12.02;nan
9187;BME280;7273;48.902;9.410;2023-02-18T08:15:15;98739.47;;;12.04;nan
9187;BME280;7273;48.902;9.410;2023-02-18T08:17:41;98738.91;;;12.07;nan
9187;BME280;7273;48.902;9.410;2023-02-18T08:20:07;98736.72;;;12.09;nan
9187;BME280;7273;48.902;9.410;2023-02-18T08:22:33;98745.13;;;12.13;nan
9187;BME280;7273;48.902;9.410;2023-02-18T08:24:58;98737.28;;;12.16;nan
9187;BME280;7273;48.902;9.410;2023-02-18T08:27:24;98740.81;;;12.17;nan
9187;BME280;7273;48.902;9.410;2023-02-18T08:29:50;98737.56;;;12.20;nan
9187;BME280;7273;48.902;9.410;2023-02-18T08:32:15;98741.63;;;12.28;nan
9187;BME280;7273;48.902;9.410;2023-02-18T08:34:41;98733.25;;;12.29;nan
9187;BME280;7273;48.902;9.410;2023-02-18T08:37:06;98729.44;;;12.35;nan
9187;BME280;7273;48.902;9.410;2023-02-18T08:39:35;98725.06;;;12.39;nan
9187;BME280;7273;48.902;9.410;2023-02-18T08:42:01;98725.91;;;12.45;nan
9187;BME280;7273;48.902;9.410;2023-02-18T08:44:27;98721.56;;;12.49;nan
9187;BME280;7273;48.902;9.410;2023-02-18T08:46:52;98722.09;;;12.56;nan
9187;BME280;7273;48.902;9.410;2023-02-18T08:49:18;98728.06;;;12.63;nan
9187;BME280;7273;48.902;9.410;2023-02-18T08:51:46;98722.63;;;12.68;nan
9187;BME280;7273;48.902;9.410;2023-02-18T08:54:12;98719.34;;;12.71;nan
9187;BME280;7273;48.902;9.410;2023-02-18T08:56:37;98718.81;;;12.74;nan
9187;BME280;7273;48.902;9.410;2023-02-18T08:59:04;98718.81;;;12.74;nan
9187;BME280;7273;48.902;9.410;2023-02-18T09:01:29;98724.22;;;12.84;nan
9187;BME280;7273;48.902;9.410;2023-02-18T09:03:55;98714.19;;;12.84;nan
9187;BME280;7273;48.902;9.410;2023-02-18T09:06:20;98715.00;;;12.85;nan
9187;BME280;7273;48.902;9.410;2023-02-18T09:08:46;98712.53;;;12.93;nan
9187;BME280;7273;48.902;9.410;2023-02-18T09:11:11;98709.25;;;12.96;nan
9187;BME280;7273;48.902;9.410;2023-02-18T09:13:37;98712.81;;;13.02;nan
9187;BME280;7273;48.902;9.410;2023-02-18T09:16:12;98714.41;;;13.03;nan
9187;BME280;7273;48.902;9.410;2023-02-18T09:18:38;98713.03;;;13.15;nan
9187;BME280;7273;48.902;9.410;2023-02-18T09:21:05;98716.47;;;13.41;nan
9187;BME280;7273;48.902;9.410;2023-02-18T09:23:32;98714.03;;;13.39;nan
9187;BME280;7273;48.902;9.410;2023-02-18T09:25:58;98701.69;;;13.62;nan
9187;BME280;7273;48.902;9.410;2023-02-18T09:28:24;98697.84;;;13.68;nan
9187;BME280;7273;48.902;9.410;2023-02-18T09:30:50;98701.91;;;13.71;nan
9187;BME280;7273;48.902;9.410;2023-02-18T09:33:16;98700.50;;;13.78;nan
9187;BME280;7273;48.902;9.410;2023-02-18T09:35:44;98699.66;;;13.83;nan
9187;BME280;7273;48.902;9.410;2023-02-18T09:38:11;98701.72;;;14.01;nan
9187;BME280;7273;48.902;9.410;2023-02-18T09:40:39;98696.44;;;14.14;nan
9187;BME280;7273;48.902;9.410;2023-02-18T09:43:06;98697.47;;;14.23;nan
9187;BME280;7273;48.902;9.410;2023-02-18T09:45:38;98693.19;;;14.17;nan
9187;BME280;7273;48.902;9.410;2023-02-18T09:48:04;98690.34;;;14.32;nan
9187;BME280;7273;48.902;9.410;2023-02-18T09:50:32;98673.59;;;14.49;nan
9187;BME280;7273;48.902;9.410;2023-02-18T09:52:59;98683.47;;;14.68;nan
9187;BME280;7273;48.902;9.410;2023-02-18T09:55:29;98683.41;;;14.73;nan
9187;BME280;7273;48.902;9.410;2023-02-18T09:57:59;98685.06;;;14.74;nan
9187;BME280;7273;48.902;9.410;2023-02-18T10:00:35;98680.16;;;14.71;nan
9187;BME280;7273;48.902;9.410;2023-02-18T10:03:05;98680.69;;;14.73;nan
9187;BME280;7273;48.902;9.410;2023-02-18T10:05:33;98680.13;;;14.76;nan
9187;BME280;7273;48.902;9.410;2023-02-18T10:08:06;98685.56;;;14.76;nan
9187;BME280;7273;48.902;9.410;2023-02-18T10:10:43;98693.00;;;14.71;nan
9187;BME280;7273;48.902;9.410;2023-02-18T10:13:20;98685.75;;;14.61;nan
9187;BME280;7273;48.902;9.410;2023-02-18T10:15:47;98677.66;;;14.51;nan
9187;BME280;7273;48.902;9.410;2023-02-18T10:20:41;98692.31;;;14.55;nan
9187;BME280;7273;48.902;9.410;2023-02-18T10:23:08;98691.72;;;14.58;nan
9187;BME280;7273;48.902;9.410;2023-02-18T10:25:42;98696.13;;;14.54;nan
9187;BME280;7273;48.902;9.410;2023-02-18T10:28:10;98684.19;;;14.50;nan
9187;BME280;7273;48.902;9.410;2023-02-18T10:30:40;98693.47;;;14.49;nan
9187;BME280;7273;48.902;9.410;2023-02-18T10:33:26;98690.53;;;14.41;nan
9187;BME280;7273;48.902;9.410;2023-02-18T10:35:56;98697.09;;;14.40;nan
9187;BME280;7273;48.902;9.410;2023-02-18T10:38:36;98695.50;;;14.34;nan
9187;BME280;7273;48.902;9.410;2023-02-18T10:50:01;98685.44;;;14.34;nan
9187;BME280;7273;48.902;9.410;2023-02-18T10:52:30;98674.53;;;14.34;nan
9187;BME280;7273;48.902;9.410;2023-02-18T10:55:04;98687.56;;;14.37;nan
9187;BME280;7273;48.902;9.410;2023-02-18T10:57:30;98679.91;;;14.44;nan
9187;BME280;7273;48.902;9.410;2023-02-18T11:02:35;98683.72;;;14.43;nan
9187;BME280;7273;48.902;9.410;2023-02-18T11:05:11;98681.06;;;14.38;nan
9187;BME280;7273;48.902;9.410;2023-02-18T11:07:45;98673.63;;;14.44;nan
9187;BME280;7273;48.902;9.410;2023-02-18T11:10:17;98668.78;;;14.41;nan
9187;BME280;7273;48.902;9.410;2023-02-18T11:12:47;98669.31;;;14.43;nan
9187;BME280;7273;48.902;9.410;2023-02-18T11:17:39;98661.91;;;14.48;nan
9187;BME280;7273;48.902;9.410;2023-02-18T11:22:48;98661.25;;;14.61;nan
9187;BME280;7273;48.902;9.410;2023-02-18T11:25:22;98658.56;;;14.56;nan
9187;BME280;7273;48.902;9.410;2023-02-18T11:27:51;98644.16;;;14.79;nan
9187;BME280;7273;48.902;9.410;2023-02-18T11:30:38;98650.78;;;14.68;nan
9187;BME280;7273;48.902;9.410;2023-02-18T11:33:08;98645.09;;;14.65;nan
9187;BME280;7273;48.902;9.410;2023-02-18T11:35:35;98643.78;;;14.62;nan
9187;BME280;7273;48.902;9.410;2023-02-18T11:38:03;98649.22;;;14.62;nan
9187;BME280;7273;48.902;9.410;2023-02-18T11:40:39;98651.03;;;14.72;nan
9187;BME280;7273;48.902;9.410;2023-02-18T11:43:11;98637.72;;;14.70;nan
9187;BME280;7273;48.902;9.410;2023-02-18T11:45:37;98637.47;;;14.67;nan
9187;BME280;7273;48.902;9.410;2023-02-18T11:48:23;98638.69;;;14.56;nan
9187;BME280;7273;48.902;9.410;2023-02-18T11:50:50;98648.75;;;14.55;nan
9187;BME280;7273;48.902;9.410;2023-02-18T11:53:27;98647.72;;;14.51;nan
9187;BME280;7273;48.902;9.410;2023-02-18T11:55:55;98632.94;;;14.57;nan
9187;BME280;7273;48.902;9.410;2023-02-18T11:58:20;98641.41;;;14.56;nan
9187;BME280;7273;48.902;9.410;2023-02-18T12:00:48;98639.13;;;14.39;nan
9187;BME280;7273;48.902;9.410;2023-02-18T12:03:37;98636.94;;;14.41;nan
9187;BME280;7273;48.902;9.410;2023-02-18T12:06:11;98636.34;;;14.44;nan
9187;BME280;7273;48.902;9.410;2023-02-18T12:08:57;98622.22;;;14.42;nan
9187;BME280;7273;48.902;9.410;2023-02-18T12:11:32;98645.13;;;14.36;nan
9187;BME280;7273;48.902;9.410;2023-02-18T12:14:00;98634.25;;;14.36;nan
9187;BME280;7273;48.902;9.410;2023-02-18T12:16:33;98628.28;;;14.34;nan
9187;BME280;7273;48.902;9.410;2023-02-18T12:22:15;98633.78;;;14.29;nan
9187;BME280;7273;48.902;9.410;2023-02-18T12:27:42;98626.78;;;14.18;nan
9187;BME280;7273;48.902;9.410;2023-02-18T12:44:02;98603.41;;;14.17;nan
9187;BME280;7273;48.902;9.410;2023-02-18T12:47:07;98610.75;;;14.17;nan
9187;BME280;7273;48.902;9.410;2023-02-18T12:55:42;98596.53;;;14.25;nan
9187;BME280;7273;48.902;9.410;2023-02-18T13:14:23;98600.88;;;14.21;nan
9187;BME280;7273;48.902;9.410;2023-02-18T13:16:51;98590.06;;;14.16;nan
9187;BME280;7273;48.902;9.410;2023-02-18T13:19:29;98597.63;;;14.24;nan
9187;BME280;7273;48.902;9.410;2023-02-18T13:22:03;98604.06;;;14.33;nan
9187;BME280;7273;48.902;9.410;2023-02-18T13:24:39;98581.03;;;14.25;nan
9187;BME280;7273;48.902;9.410;2023-02-18T13:27:28;98580.47;;;14.23;nan
9187;BME280;7273;48.902;9.410;2023-02-18T13:41:37;98572.59;;;14.27;nan
9187;BME280;7273;48.902;9.410;2023-02-18T13:44:08;98559.00;;;14.22;nan
9187;BME280;7273;48.902;9.410;2023-02-18T13:46:50;98567.16;;;14.22;nan
9187;BME280;7273;48.902;9.410;2023-02-18T13:49:27;98557.34;;;14.21;nan
9187;BME280;7273;48.902;9.410;2023-02-18T13:51:57;98554.44;;;14.17;nan
9187;BME280;7273;48.902;9.410;2023-02-18T13:54:27;98553.91;;;14.15;nan
9187;BME280;7273;48.902;9.410;2023-02-18T13:57:00;98548.75;;;14.14;nan
9187;BME280;7273;48.902;9.410;2023-02-18T13:59:34;98548.47;;;14.15;nan
9187;BME280;7273;48.902;9.410;2023-02-18T14:09:50;98534.91;;;14.10;nan
9187;BME280;7273;48.902;9.410;2023-02-18T14:25:54;98528.94;;;14.08;nan
9187;BME280;7273;48.902;9.410;2023-02-18T14:33:33;98529.19;;;14.12;nan
9187;BME280;7273;48.902;9.410;2023-02-18T14:38:42;98530.03;;;14.07;nan
9187;BME280;7273;48.902;9.410;2023-02-18T14:41:41;98534.66;;;14.07;nan
9187;BME280;7273;48.902;9.410;2023-02-18T14:47:06;98530.84;;;14.08;nan
9187;BME280;7273;48.902;9.410;2023-02-18T14:49:42;98527.81;;;14.09;nan
9187;BME280;7273;48.902;9.410;2023-02-18T14:54:51;98524.91;;;14.06;nan
9187;BME280;7273;48.902;9.410;2023-02-18T14:57:19;98532.00;;;14.02;nan
9187;BME280;7273;48.902;9.410;2023-02-18T14:59:48;98532.63;;;13.94;nan
9187;BME280;7273;48.902;9.410;2023-02-18T15:02:22;98532.88;;;13.97;nan
9187;BME280;7273;48.902;9.410;2023-02-18T15:04:48;98534.22;;;13.95;nan
9187;BME280;7273;48.902;9.410;2023-02-18T15:07:18;98542.13;;;13.91;nan
9187;BME280;7273;48.902;9.410;2023-02-18T15:09:53;98540.56;;;13.85;nan
9187;BME280;7273;48.902;9.410;2023-02-18T15:12:21;98534.41;;;13.80;nan
9187;BME280;7273;48.902;9.410;2023-02-18T15:14:50;98538.75;;;13.76;nan
9187;BME280;7273;48.902;9.410;2023-02-18T15:17:21;98545.59;;;13.73;nan
9187;BME280;7273;48.902;9.410;2023-02-18T15:19:52;98541.81;;;13.69;nan
9187;BME280;7273;48.902;9.410;2023-02-18T15:22:20;98543.22;;;13.67;nan
9187;BME280;7273;48.902;9.410;2023-02-18T15:24:48;98549.72;;;13.66;nan
9187;BME280;7273;48.902;9.410;2023-02-18T15:27:17;98544.03;;;13.62;nan
9187;BME280;7273;48.902;9.410;2023-02-18T15:29:43;98551.94;;;13.59;nan
9187;BME280;7273;48.902;9.410;2023-02-18T15:32:20;98546.50;;;13.59;nan
9187;BME280;7273;48.902;9.410;2023-02-18T15:34:52;98539.41;;;13.63;nan
9187;BME280;7273;48.902;9.410;2023-02-18T15:37:18;98541.84;;;13.64;nan
9187;BME280;7273;48.902;9.410;2023-02-18T15:39:45;98532.59;;;13.65;nan
9187;BME280;7273;48.902;9.410;2023-02-18T15:44:47;98525.78;;;13.68;nan
9187;BME280;7273;48.902;9.410;2023-02-18T15:47:15;98521.00;;;13.55;nan
9187;BME280;7273;48.902;9.410;2023-02-18T15:49:45;98527.75;;;13.57;nan
9187;BME280;7273;48.902;9.410;2023-02-18T15:52:12;98535.44;;;13.50;nan
9187;BME280;7273;48.902;9.410;2023-02-18T15:54:39;98522.66;;;13.50;nan
9187;BME280;7273;48.902;9.410;2023-02-18T15:57:09;98528.13;;;13.45;nan
9187;BME280;7273;48.902;9.410;2023-02-18T15:59:44;98522.22;;;13.38;nan
9187;BME280;7273;48.902;9.410;2023-02-18T16:02:16;98525.75;;;13.34;nan
9187;BME280;7273;48.902;9.410;2023-02-18T16:04:46;98516.03;;;13.28;nan
9187;BME280;7273;48.902;9.410;2023-02-18T16:07:28;98509.56;;;13.24;nan
9187;BME280;7273;48.902;9.410;2023-02-18T16:10:52;98521.25;;;13.19;nan
9187;BME280;7273;48.902;9.410;2023-02-18T16:12:57;98521.00;;;13.16;nan
9187;BME280;7273;48.902;9.410;2023-02-18T16:15:29;98528.63;;;13.14;nan
9187;BME280;7273;48.902;9.410;2023-02-18T16:17:56;98518.09;;;13.07;nan
9187;BME280;7273;48.902;9.410;2023-02-18T16:20:31;98523.81;;;13.06;nan
9187;BME280;7273;48.902;9.410;2023-02-18T16:23:02;98519.44;;;13.05;nan
9187;BME280;7273;48.902;9.410;2023-02-18T16:25:54;98521.59;;;13.08;nan